createdAt,value
2022-09-28T00:01:14.089Z,98157.53
2022-09-28T00:03:42.256Z,98164.94
2022-09-28T00:06:12.767Z,98170.78
2022-09-28T00:08:40.465Z,98167.28
2022-09-28T00:11:11.972Z,98164.00
2022-09-28T00:13:42.088Z,98165.41
2022-09-28T00:16:17.983Z,98179.09
2022-09-28T00:18:46.179Z,98166.84
2022-09-28T00:21:16.931Z,98158.78
2022-09-28T00:23:45.333Z,98162.50
2022-09-28T00:26:12.966Z,98147.38
2022-09-28T00:28:41.409Z,98142.34
2022-09-28T00:31:09.082Z,98143.34
2022-09-28T00:33:36.737Z,98137.78
2022-09-28T00:36:04.712Z,98140.09
2022-09-28T00:38:32.458Z,98137.94
2022-09-28T00:41:00.164Z,98133.59
2022-09-28T00:43:28.117Z,98128.44
2022-09-28T00:46:02.330Z,98133.31
2022-09-28T00:48:34.375Z,98145.03
2022-09-28T00:51:05.614Z,98146.12
2022-09-28T00:53:35.157Z,98140.56
2022-09-28T00:56:07.129Z,98138.78
2022-09-28T00:58:38.397Z,98139.41
2022-09-28T01:01:06.201Z,98150.84
2022-09-28T01:03:34.278Z,98160.97
2022-09-28T01:06:04.104Z,98154.31
2022-09-28T01:08:33.645Z,98163.75
2022-09-28T01:11:01.678Z,98157.03
2022-09-28T01:13:30.849Z,98159.22
2022-09-28T01:16:13.181Z,98162.19
2022-09-28T01:19:21.906Z,98162.50
2022-09-28T01:22:07.576Z,98163.47
2022-09-28T01:24:43.504Z,98167.19
2022-09-28T01:27:15.626Z,98163.69
2022-09-28T01:30:00.890Z,98168.16
2022-09-28T01:32:51.179Z,98172.75
2022-09-28T01:35:47.909Z,98179.44
2022-09-28T01:38:25.343Z,98188.44
2022-09-28T01:40:53.967Z,98180.09
2022-09-28T01:43:25.307Z,98189.28
2022-09-28T01:45:56.716Z,98191.56
2022-09-28T01:48:29.430Z,98188.94
2022-09-28T01:50:59.927Z,98201.53
2022-09-28T01:53:40.261Z,98192.56
2022-09-28T01:56:14.571Z,98189.28
2022-09-28T01:58:59.712Z,98204.81
2022-09-28T02:01:31.301Z,98206.06
2022-09-28T02:04:03.827Z,98198.12
2022-09-28T02:06:37.593Z,98191.75
2022-09-28T02:09:11.757Z,98201.03
2022-09-28T02:11:45.221Z,98202.97
2022-09-28T02:14:16.115Z,98198.38
2022-09-28T02:16:46.549Z,98201.19
2022-09-28T02:19:19.825Z,98202.06
2022-09-28T02:22:08.795Z,98205.75
2022-09-28T02:24:47.034Z,98207.75
2022-09-28T02:27:31.999Z,98208.34
2022-09-28T02:30:00.488Z,98208.75
2022-09-28T02:32:28.946Z,98207.09
2022-09-28T02:34:56.976Z,98208.78
2022-09-28T02:37:27.077Z,98202.84
2022-09-28T02:39:54.624Z,98207.50
2022-09-28T02:42:57.397Z,98211.00
2022-09-28T02:45:54.507Z,98214.25
2022-09-28T02:48:49.167Z,98224.44
2022-09-28T02:51:41.010Z,98212.53
2022-09-28T02:54:13.450Z,98208.38
2022-09-28T02:57:13.159Z,98218.28
2022-09-28T02:59:43.629Z,98224.87
2022-09-28T03:02:23.005Z,98215.31
2022-09-28T03:05:03.552Z,98206.47
2022-09-28T03:08:00.903Z,98211.53
2022-09-28T03:10:38.402Z,98210.59
2022-09-28T03:13:06.952Z,98204.50
2022-09-28T03:15:36.330Z,98202.22
2022-09-28T03:18:04.470Z,98201.81
2022-09-28T03:20:33.031Z,98208.88
2022-09-28T03:23:23.363Z,98216.16
2022-09-28T03:25:48.840Z,98231.88
2022-09-28T03:28:16.494Z,98242.31
2022-09-28T03:30:44.150Z,98242.88
2022-09-28T03:33:12.322Z,98251.50
2022-09-28T03:35:39.997Z,98244.31
2022-09-28T03:38:07.760Z,98245.34
2022-09-28T03:40:37.953Z,98246.91
2022-09-28T03:43:05.537Z,98239.06
2022-09-28T03:45:33.684Z,98242.50
2022-09-28T03:48:01.918Z,98234.38
2022-09-28T03:50:29.613Z,98232.16
2022-09-28T03:53:02.168Z,98235.84
2022-09-28T03:55:30.118Z,98240.41
2022-09-28T03:57:57.737Z,98244.59
2022-09-28T04:00:25.392Z,98244.31
2022-09-28T04:02:53.771Z,98242.72
2022-09-28T04:05:21.362Z,98243.00
2022-09-28T04:07:49.067Z,98239.31
2022-09-28T04:10:17.299Z,98237.72
2022-09-28T04:12:44.999Z,98239.81
2022-09-28T04:15:12.976Z,98242.97
2022-09-28T04:17:42.939Z,98242.25
2022-09-28T04:20:12.065Z,98251.03
2022-09-28T04:22:40.102Z,98239.72
2022-09-28T04:25:08.677Z,98243.38
2022-09-28T04:27:36.814Z,98242.28
2022-09-28T04:30:05.593Z,98246.78
2022-09-28T04:32:34.276Z,98245.34
2022-09-28T04:35:02.213Z,98244.75
2022-09-28T04:37:30.051Z,98244.75
2022-09-28T04:39:58.009Z,98242.31
2022-09-28T04:42:25.684Z,98237.81
2022-09-28T04:44:53.390Z,98248.69
2022-09-28T04:47:21.254Z,98243.25
2022-09-28T04:49:49.557Z,98239.97
2022-09-28T04:52:18.506Z,98235.81
2022-09-28T04:54:48.319Z,98236.84
2022-09-28T04:57:17.055Z,98238.06
2022-09-28T04:59:44.956Z,98234.59
2022-09-28T05:02:13.277Z,98239.31
2022-09-28T05:04:41.957Z,98245.78
2022-09-28T05:07:10.689Z,98240.63
2022-09-28T05:09:39.273Z,98233.56
2022-09-28T05:12:08.697Z,98236.56
2022-09-28T05:14:36.372Z,98241.34
2022-09-28T05:17:04.879Z,98243.06
2022-09-28T05:19:33.951Z,98243.13
2022-09-28T05:22:02.812Z,98238.44
2022-09-28T05:24:31.541Z,98243.19
2022-09-28T05:26:59.911Z,98247.81
2022-09-28T05:29:31.918Z,98247.78
2022-09-28T05:32:03.496Z,98249.47
2022-09-28T05:34:31.684Z,98255.63
2022-09-28T05:37:05.776Z,98258.19
2022-09-28T05:39:33.691Z,98259.75
2022-09-28T05:42:02.076Z,98261.84
2022-09-28T05:44:30.176Z,98258.50
2022-09-28T05:46:58.062Z,98264.59
2022-09-28T05:49:25.954Z,98254.31
2022-09-28T05:51:53.683Z,98247.03
2022-09-28T05:54:21.707Z,98254.75
2022-09-28T05:56:51.879Z,98255.22
2022-09-28T05:59:19.473Z,98252.41
2022-09-28T06:01:47.505Z,98254.19
2022-09-28T06:04:16.030Z,98255.41
2022-09-28T06:06:44.021Z,98248.94
2022-09-28T06:09:11.665Z,98241.00
2022-09-28T06:11:40.221Z,98250.69
2022-09-28T06:14:09.119Z,98239.50
2022-09-28T06:16:41.635Z,98244.53
2022-09-28T06:19:12.243Z,98250.22
2022-09-28T06:21:39.931Z,98251.59
2022-09-28T06:24:08.009Z,98253.16
2022-09-28T06:26:36.708Z,98254.28
2022-09-28T06:29:05.298Z,98257.19
2022-09-28T06:31:32.863Z,98257.72
2022-09-28T06:34:00.961Z,98265.25
2022-09-28T06:36:29.530Z,98260.88
2022-09-28T06:38:57.438Z,98268.66
2022-09-28T06:41:25.475Z,98266.41
2022-09-28T06:43:53.085Z,98257.66
2022-09-28T06:46:22.524Z,98265.94
2022-09-28T06:48:52.114Z,98270.22
2022-09-28T06:51:20.196Z,98257.47
2022-09-28T06:53:49.161Z,98259.59
2022-09-28T06:56:18.151Z,98257.25
2022-09-28T06:58:45.928Z,98265.22
2022-09-28T07:01:13.860Z,98260.94
2022-09-28T07:03:42.143Z,98274.06
2022-09-28T07:06:11.713Z,98271.09
2022-09-28T07:08:40.974Z,98273.25
2022-09-28T07:11:09.101Z,98280.41
2022-09-28T07:13:49.606Z,98262.94
2022-09-28T07:16:21.658Z,98272.56
2022-09-28T07:18:53.614Z,98269.94
2022-09-28T07:21:29.201Z,98269.75
2022-09-28T07:23:59.716Z,98271.84
2022-09-28T07:26:29.868Z,98283.56
2022-09-28T07:28:57.636Z,98279.53
2022-09-28T07:31:26.100Z,98275.50
2022-09-28T07:33:54.160Z,98276.69
2022-09-28T07:36:22.143Z,98277.59
2022-09-28T07:38:51.032Z,98281.91
2022-09-28T07:41:19.122Z,98282.28
2022-09-28T07:43:47.055Z,98285.72
2022-09-28T07:46:14.809Z,98285.03
2022-09-28T07:48:43.846Z,98290.50
2022-09-28T07:51:12.030Z,98285.56
2022-09-28T07:53:39.730Z,98290.25
2022-09-28T07:56:09.058Z,98280.97
2022-09-28T07:58:38.756Z,98284.69
2022-09-28T08:01:09.541Z,98287.16
2022-09-28T08:03:38.537Z,98293.59
2022-09-28T08:06:07.339Z,98281.72
2022-09-28T08:08:35.107Z,98287.22
2022-09-28T08:11:03.303Z,98290.19
2022-09-28T08:13:31.583Z,98290.62
2022-09-28T08:16:02.820Z,98294.97
2022-09-28T08:18:31.962Z,98292.09
2022-09-28T08:20:59.577Z,98288.44
2022-09-28T08:23:27.401Z,98289.34
2022-09-28T08:25:55.755Z,98275.91
2022-09-28T08:28:24.581Z,98280.31
2022-09-28T08:30:52.661Z,98270.16
2022-09-28T08:33:21.657Z,98258.06
2022-09-28T08:36:14.317Z,98266.50
2022-09-28T08:38:43.715Z,98271.25
2022-09-28T08:41:59.936Z,98264.47
2022-09-28T08:44:44.539Z,98256.09
2022-09-28T08:47:18.391Z,98248.19
2022-09-28T08:49:47.608Z,98263.44
2022-09-28T08:52:21.131Z,98271.50
2022-09-28T08:55:03.914Z,98282.53
2022-09-28T08:57:41.607Z,98276.09
2022-09-28T09:00:16.575Z,98271.87
2022-09-28T09:02:44.416Z,98280.47
2022-09-28T09:05:17.138Z,98282.03
2022-09-28T09:08:06.800Z,98268.34
2022-09-28T09:10:52.701Z,98278.41
2022-09-28T09:14:05.040Z,98281.53
2022-09-28T09:16:43.716Z,98273.97
2022-09-28T09:19:17.478Z,98270.22
2022-09-28T09:21:58.256Z,98272.44
2022-09-28T09:24:37.002Z,98269.75
2022-09-28T09:27:06.187Z,98263.69
2022-09-28T09:29:57.207Z,98261.84
2022-09-28T09:32:50.190Z,98274.69
2022-09-28T09:35:33.972Z,98272.66
2022-09-28T09:38:18.388Z,98262.22
2022-09-28T09:40:49.031Z,98259.97
2022-09-28T09:43:56.611Z,98267.50
2022-09-28T09:46:28.120Z,98257.25
2022-09-28T09:49:13.977Z,98256.34
2022-09-28T09:52:11.491Z,98266.75
2022-09-28T09:54:43.255Z,98264.56
2022-09-28T09:57:25.284Z,98267.31
2022-09-28T09:59:55.016Z,98267.44
2022-09-28T10:02:29.152Z,98265.63
2022-09-28T10:05:18.659Z,98265.56
2022-09-28T10:07:58.906Z,98271.03
2022-09-28T10:10:38.159Z,98272.13
2022-09-28T10:13:05.847Z,98263.63
2022-09-28T10:15:34.965Z,98269.16
2022-09-28T10:18:11.044Z,98271.87
2022-09-28T10:20:44.089Z,98270.78
2022-09-28T10:23:23.052Z,98275.44
2022-09-28T10:26:04.114Z,98272.97
2022-09-28T10:28:41.042Z,98263.50
2022-09-28T10:31:38.334Z,98271.75
2022-09-28T10:34:07.877Z,98269.72
2022-09-28T10:36:52.701Z,98273.28
2022-09-28T10:39:36.789Z,98269.13
2022-09-28T10:42:10.138Z,98264.78
2022-09-28T10:45:01.144Z,98265.00
2022-09-28T10:47:30.978Z,98261.78
2022-09-28T10:49:59.589Z,98265.28
2022-09-28T10:52:39.433Z,98261.91
2022-09-28T10:55:21.154Z,98263.25
2022-09-28T10:57:48.900Z,98261.66
2022-09-28T11:00:44.578Z,98257.56
2022-09-28T11:03:30.839Z,98266.31
2022-09-28T11:06:07.037Z,98268.22
2022-09-28T11:08:37.778Z,98263.00
2022-09-28T11:11:07.648Z,98248.66
2022-09-28T11:13:59.448Z,98250.19
2022-09-28T11:16:32.969Z,98243.62
2022-09-28T11:19:23.663Z,98251.47
2022-09-28T11:21:52.196Z,98241.97
2022-09-28T11:24:23.916Z,98239.72
2022-09-28T11:26:55.283Z,98236.94
2022-09-28T11:29:30.358Z,98238.41
2022-09-28T11:32:00.678Z,98238.44
2022-09-28T11:34:57.472Z,98242.56
2022-09-28T11:37:51.957Z,98243.47
2022-09-28T11:40:23.997Z,98235.38
2022-09-28T11:42:51.912Z,98236.62
2022-09-28T11:45:46.461Z,98230.34
2022-09-28T11:48:25.951Z,98226.81
2022-09-28T11:50:58.574Z,98228.50
2022-09-28T11:54:08.790Z,98227.84
2022-09-28T11:56:40.148Z,98219.47
2022-09-28T11:59:11.962Z,98226.53
2022-09-28T12:01:52.768Z,98227.09
2022-09-28T12:04:21.030Z,98230.00
2022-09-28T12:06:57.826Z,98233.66
2022-09-28T12:09:41.945Z,98234.28
2022-09-28T12:12:22.047Z,98223.88
2022-09-28T12:14:54.391Z,98217.75
2022-09-28T12:17:29.630Z,98213.94
2022-09-28T12:20:14.622Z,98208.88
2022-09-28T12:22:49.661Z,98200.63
2022-09-28T12:25:21.243Z,98197.88
2022-09-28T12:27:57.054Z,98191.38
2022-09-28T12:30:25.465Z,98183.62
2022-09-28T12:33:05.572Z,98187.09
2022-09-28T12:35:58.348Z,98179.72
2022-09-28T12:39:17.720Z,98167.56
2022-09-28T12:41:53.634Z,98164.53
2022-09-28T12:44:43.127Z,98173.44
2022-09-28T12:47:46.975Z,98161.06
2022-09-28T12:50:52.763Z,98161.06
2022-09-28T12:53:33.384Z,98161.44
2022-09-28T12:56:03.896Z,98151.66
2022-09-28T12:58:36.301Z,98143.47
2022-09-28T13:01:21.008Z,98150.53
2022-09-28T13:04:01.213Z,98138.47
2022-09-28T13:06:34.844Z,98137.22
2022-09-28T13:09:02.880Z,98139.63
2022-09-28T13:11:35.147Z,98149.56
2022-09-28T13:14:09.048Z,98138.91
2022-09-28T13:16:59.744Z,98141.59
2022-09-28T13:19:47.027Z,98150.75
2022-09-28T13:22:44.077Z,98152.75
2022-09-28T13:25:20.748Z,98146.63
2022-09-28T13:27:58.637Z,98146.63
2022-09-28T13:30:27.216Z,98140.72
2022-09-28T13:32:59.604Z,98141.56
2022-09-28T13:35:27.710Z,98145.47
2022-09-28T13:38:27.894Z,98143.50
2022-09-28T13:41:04.629Z,98130.31
2022-09-28T13:43:45.508Z,98136.59
2022-09-28T13:46:27.490Z,98138.72
2022-09-28T13:49:19.275Z,98142.88
2022-09-28T13:52:13.069Z,98135.44
2022-09-28T13:55:17.079Z,98140.22
2022-09-28T13:57:48.211Z,98139.84
2022-09-28T14:00:23.289Z,98137.47
2022-09-28T14:03:03.269Z,98142.00
2022-09-28T14:06:03.064Z,98141.28
2022-09-28T14:08:39.635Z,98151.16
2022-09-28T14:11:36.453Z,98150.31
2022-09-28T14:14:07.263Z,98147.50
2022-09-28T14:16:35.859Z,98138.50
2022-09-28T14:19:09.499Z,98143.38
2022-09-28T14:21:55.721Z,98138.50
2022-09-28T14:24:29.206Z,98139.06
2022-09-28T14:26:59.756Z,98138.44
2022-09-28T14:29:29.631Z,98131.91
2022-09-28T14:32:24.172Z,98125.22
2022-09-28T14:35:02.377Z,98134.47
2022-09-28T14:37:33.089Z,98126.53
2022-09-28T14:40:01.464Z,98131.97
2022-09-28T14:42:29.088Z,98124.50
2022-09-28T14:45:06.323Z,98117.97
2022-09-28T14:47:41.334Z,98126.72
2022-09-28T14:50:26.805Z,98119.00
2022-09-28T14:52:55.425Z,98111.50
2022-09-28T14:55:31.389Z,98110.00
2022-09-28T14:57:59.398Z,98119.69
2022-09-28T15:00:29.033Z,98121.97
2022-09-28T15:03:01.079Z,98119.72
2022-09-28T15:05:55.350Z,98122.94
2022-09-28T15:08:22.914Z,98125.84
2022-09-28T15:10:51.281Z,98117.50
2022-09-28T15:13:22.558Z,98119.47
2022-09-28T15:15:56.986Z,98123.91
2022-09-28T15:18:37.868Z,98115.88
2022-09-28T15:21:05.499Z,98116.44
2022-09-28T15:23:35.924Z,98115.06
2022-09-28T15:26:05.674Z,98120.09
2022-09-28T15:28:35.411Z,98121.50
2022-09-28T15:31:05.079Z,98121.78
2022-09-28T15:33:34.665Z,98117.34
2022-09-28T15:36:05.649Z,98112.28
2022-09-28T15:38:34.965Z,98100.12
2022-09-28T15:41:03.759Z,98112.72
2022-09-28T15:43:33.470Z,98099.25
2022-09-28T15:46:14.161Z,98092.81
2022-09-28T15:48:54.076Z,98107.94
2022-09-28T15:51:23.781Z,98106.25
2022-09-28T15:54:00.749Z,98104.25
2022-09-28T15:56:31.810Z,98100.78
2022-09-28T15:59:18.912Z,98095.00
2022-09-28T16:01:47.766Z,98097.28
2022-09-28T16:04:37.673Z,98100.38
2022-09-28T16:07:11.100Z,98102.00
2022-09-28T16:10:13.170Z,98101.75
2022-09-28T16:12:42.417Z,98113.50
2022-09-28T16:15:14.814Z,98109.66
2022-09-28T16:17:42.436Z,98104.56
2022-09-28T16:20:27.194Z,98106.44
2022-09-28T16:22:56.945Z,98100.16
2022-09-28T16:25:26.608Z,98108.44
2022-09-28T16:27:54.987Z,98107.62
2022-09-28T16:30:24.936Z,98108.09
2022-09-28T16:33:29.263Z,98117.22
2022-09-28T16:36:02.207Z,98114.12
2022-09-28T16:38:30.209Z,98106.19
2022-09-28T16:41:00.658Z,98107.75
2022-09-28T16:43:28.258Z,98110.13
2022-09-28T16:45:58.664Z,98107.34
2022-09-28T16:48:30.913Z,98104.22
2022-09-28T16:50:59.130Z,98108.84
2022-09-28T16:53:27.189Z,98104.81
2022-09-28T16:55:54.819Z,98105.72
2022-09-28T16:58:24.925Z,98102.94
2022-09-28T17:00:52.589Z,98110.50
2022-09-28T17:03:20.983Z,98115.50
2022-09-28T17:05:49.746Z,98124.69
2022-09-28T17:08:19.659Z,98122.47
2022-09-28T17:11:13.981Z,98121.16
2022-09-28T17:13:44.150Z,98121.62
2022-09-28T17:16:16.991Z,98115.75
2022-09-28T17:18:45.574Z,98117.94
2022-09-28T17:21:19.064Z,98116.84
2022-09-28T17:23:48.592Z,98120.75
2022-09-28T17:26:19.526Z,98116.28
2022-09-28T17:28:47.528Z,98106.69
2022-09-28T17:31:16.368Z,98105.91
2022-09-28T17:33:44.989Z,98096.53
2022-09-28T17:36:14.849Z,98097.31
2022-09-28T17:38:42.746Z,98099.72
2022-09-28T17:41:20.241Z,98097.72
2022-09-28T17:43:49.094Z,98096.59
2022-09-28T17:46:27.705Z,98099.34
2022-09-28T17:48:57.836Z,98098.16
2022-09-28T17:51:30.579Z,98100.75
2022-09-28T17:53:59.024Z,98115.88
2022-09-28T17:56:31.900Z,98114.97
2022-09-28T17:59:03.309Z,98121.34
2022-09-28T18:01:31.855Z,98119.63
2022-09-28T18:04:01.139Z,98114.97
2022-09-28T18:06:28.992Z,98118.34
2022-09-28T18:08:56.726Z,98121.34
2022-09-28T18:11:24.740Z,98120.06
2022-09-28T18:13:52.421Z,98121.88
2022-09-28T18:16:20.381Z,98126.44
2022-09-28T18:18:48.713Z,98128.63
2022-09-28T18:21:16.331Z,98132.13
2022-09-28T18:23:43.984Z,98130.44
2022-09-28T18:26:13.202Z,98130.72
2022-09-28T18:28:41.473Z,98139.13
2022-09-28T18:31:13.791Z,98137.22
2022-09-28T18:33:51.154Z,98147.16
2022-09-28T18:36:18.904Z,98139.59
2022-09-28T18:38:47.053Z,98132.13
2022-09-28T18:41:15.201Z,98134.34
2022-09-28T18:43:50.009Z,98142.28
2022-09-28T18:46:18.680Z,98134.88
2022-09-28T18:48:46.468Z,98135.31
2022-09-28T18:51:17.171Z,98140.72
2022-09-28T18:53:44.922Z,98146.12
2022-09-28T18:56:16.251Z,98149.87
2022-09-28T18:58:45.272Z,98150.66
2022-09-28T19:01:31.891Z,98153.94
2022-09-28T19:04:03.122Z,98149.84
2022-09-28T19:06:32.478Z,98152.47
2022-09-28T19:09:03.936Z,98147.44
2022-09-28T19:11:33.603Z,98153.47
2022-09-28T19:14:06.770Z,98150.69
2022-09-28T19:16:34.731Z,98150.16
2022-09-28T19:19:02.627Z,98152.69
2022-09-28T19:21:33.109Z,98149.63
2022-09-28T19:24:02.545Z,98161.28
2022-09-28T19:26:34.179Z,98159.28
2022-09-28T19:29:02.434Z,98164.78
2022-09-28T19:31:30.491Z,98160.44
2022-09-28T19:33:58.663Z,98159.16
2022-09-28T19:36:27.068Z,98157.75
2022-09-28T19:38:56.407Z,98158.22
2022-09-28T19:41:26.480Z,98165.84
2022-09-28T19:43:54.356Z,98154.97
2022-09-28T19:46:22.118Z,98144.97
2022-09-28T19:48:49.772Z,98154.53
2022-09-28T19:51:17.638Z,98150.19
2022-09-28T19:53:45.351Z,98148.19
2022-09-28T19:56:12.972Z,98148.53
2022-09-28T19:58:41.321Z,98144.81
2022-09-28T20:01:09.041Z,98149.78
2022-09-28T20:03:36.953Z,98154.81
2022-09-28T20:06:05.230Z,98145.16
2022-09-28T20:08:32.775Z,98140.03
2022-09-28T20:11:00.796Z,98138.72
2022-09-28T20:13:34.050Z,98135.06
2022-09-28T20:16:06.613Z,98133.94
2022-09-28T20:18:35.443Z,98133.47
2022-09-28T20:21:05.982Z,98126.09
2022-09-28T20:23:33.839Z,98125.31
2022-09-28T20:26:02.154Z,98125.66
2022-09-28T20:28:30.491Z,98123.78
2022-09-28T20:31:16.334Z,98122.38
2022-09-28T20:33:44.576Z,98125.00
2022-09-28T20:36:20.508Z,98127.72
2022-09-28T20:38:58.468Z,98129.66
2022-09-28T20:41:26.080Z,98132.88
2022-09-28T20:43:55.775Z,98131.91
2022-09-28T20:46:23.645Z,98138.12
2022-09-28T20:48:51.775Z,98122.81
2022-09-28T20:51:20.014Z,98123.84
2022-09-28T20:53:50.575Z,98123.44
2022-09-28T20:56:23.101Z,98129.84
2022-09-28T20:58:51.373Z,98124.56
2022-09-28T21:01:24.000Z,98118.81
2022-09-28T21:03:54.289Z,98118.47
2022-09-28T21:06:24.320Z,98115.34
2022-09-28T21:08:52.318Z,98114.94
2022-09-28T21:11:22.096Z,98108.63
2022-09-28T21:13:54.862Z,98103.66
2022-09-28T21:16:22.751Z,98100.28
2022-09-28T21:18:50.672Z,98100.97
2022-09-28T21:21:19.938Z,98105.16
2022-09-28T21:23:48.262Z,98102.03
2022-09-28T21:26:21.370Z,98092.28
2022-09-28T21:28:51.704Z,98090.03
2022-09-28T21:31:19.369Z,98092.62
2022-09-28T21:33:47.143Z,98093.16
2022-09-28T21:36:15.097Z,98087.59
2022-09-28T21:38:42.899Z,98080.87
2022-09-28T21:41:10.525Z,98088.19
2022-09-28T21:43:39.176Z,98079.50
2022-09-28T21:46:06.852Z,98074.78
2022-09-28T21:48:34.461Z,98077.16
2022-09-28T21:51:05.314Z,98075.25
2022-09-28T21:53:35.301Z,98066.28
2022-09-28T21:56:06.179Z,98068.09
2022-09-28T21:58:34.643Z,98068.81
2022-09-28T22:01:06.079Z,98081.50
2022-09-28T22:03:35.326Z,98071.28
2022-09-28T22:06:04.875Z,98073.91
2022-09-28T22:08:32.982Z,98068.31
2022-09-28T22:11:02.728Z,98073.78
2022-09-28T22:13:32.698Z,98071.66
2022-09-28T22:16:00.795Z,98074.06
2022-09-28T22:18:30.389Z,98081.09
2022-09-28T22:21:01.616Z,98076.00
2022-09-28T22:23:30.264Z,98072.78
2022-09-28T22:26:05.717Z,98073.47
2022-09-28T22:28:34.375Z,98065.28
2022-09-28T22:31:02.611Z,98071.09
2022-09-28T22:33:30.270Z,98075.56
2022-09-28T22:35:58.217Z,98082.69
2022-09-28T22:38:25.727Z,98081.56
2022-09-28T22:40:55.424Z,98076.34
2022-09-28T22:43:24.147Z,98077.97
2022-09-28T22:46:06.063Z,98078.69
2022-09-28T22:48:34.423Z,98074.16
2022-09-28T22:51:03.222Z,98069.62
2022-09-28T22:53:30.842Z,98074.06
2022-09-28T22:55:59.874Z,98071.28
2022-09-28T22:58:27.820Z,98087.19
2022-09-28T23:00:55.396Z,98082.44
2022-09-28T23:03:23.628Z,98086.69
2022-09-28T23:05:52.788Z,98086.00
2022-09-28T23:08:20.885Z,98078.94
2022-09-28T23:10:48.963Z,98072.75
2022-09-28T23:13:16.698Z,98077.38
2022-09-28T23:15:44.467Z,98071.28
2022-09-28T23:18:12.454Z,98062.63
2022-09-28T23:20:40.042Z,98060.72
2022-09-28T23:23:07.562Z,98063.47
2022-09-28T23:25:35.482Z,98054.34
2022-09-28T23:28:03.161Z,98063.22
2022-09-28T23:30:30.777Z,98064.63
2022-09-28T23:32:58.639Z,98065.41
2022-09-28T23:35:26.178Z,98067.59
2022-09-28T23:37:53.841Z,98062.72
2022-09-28T23:40:21.889Z,98063.34
2022-09-28T23:42:49.515Z,98064.00
2022-09-28T23:45:17.097Z,98066.97
2022-09-28T23:47:45.216Z,98064.00
2022-09-28T23:50:13.081Z,98064.81
2022-09-28T23:52:40.619Z,98067.75
2022-09-28T23:55:08.713Z,98068.19
2022-09-28T23:57:36.472Z,98064.00
